CRF6 weather

Public forecast

Using degrees Celsius for public forecast. Weather courtesy of forecast.io.

Closest aviation weather report (METAR) to Quamichan Lake (Raven Field) Seaplane Base

Closest report is Victoria International Airport, 13.1 nm (24.3 km) SE. Retrieved 2020/08/11 17:00 UTC (53 minutes ago):

CYYJ 111700Z 13006KT 30SM FEW045 FEW220 18/12 A2993 RMK SC1CI1 SC TR SLP138 DENSITY ALT 400FT

Closest aviation forecast (TAF) to Quamichan Lake (Raven Field) Seaplane Base

Closest forecast is Victoria International Airport, 13.1 nm (24.3 km) SE. Retrieved 2020/08/11 12:39 UTC (5 hours ago):

TAF CYYJ 111138Z 1112/1212 VRB03KT P6SM FEW250 BECMG 1116/1118 12008KT FM121000 26006KT P6SM SCT040 RMK NXT FCST BY 111800Z